Time;durP1;ratioP1;P1;durP2;ratioP2;P2;SDS_P1;SDS_P2;PMS_P1;PMS_P2;Temp;Humidity;BMP_temperature;BMP_pressure;BME280_temperature;BME280_humidity;BME280_pressure;Samples;Min_cycle;Max_cycle;Signal;HPM_P1;HPM_P2
2021/01/04 00:00:32;;;;;;;6.65;3.78;;;3.50;1.00;;;;;;4936272;29;20191;-78
2021/01/04 00:03:22;;;;;;;5.85;3.58;;;3.40;1.00;;;;;;4951239;29;20363;-78
2021/01/04 00:06:28;;;;;;;6.50;3.95;;;3.50;1.00;;;;;;4948623;29;20262;-75
2021/01/04 00:09:25;;;;;;;7.50;3.63;;;3.40;1.00;;;;;;4947125;28;20576;-75
2021/01/04 00:12:17;;;;;;;6.65;3.97;;;3.50;1.00;;;;;;4929193;29;20196;-75
2021/01/04 00:14:46;;;;;;;3.92;2.97;;;3.50;1.00;;;;;;4878725;29;20313;-75
2021/01/04 00:17:36;;;;;;;3.65;3.00;;;3.50;1.00;;;;;;4912077;29;20194;-75
2021/01/04 00:20:35;;;;;;;6.15;3.30;;;3.50;1.00;;;;;;4946068;29;20195;-75
2021/01/04 00:23:24;;;;;;;4.40;3.50;;;3.50;1.00;;;;;;4954711;29;20654;-75
2021/01/04 00:26:12;;;;;;;4.95;3.60;;;3.50;1.00;;;;;;4955133;29;20205;-75
2021/01/04 00:28:39;;;;;;;7.13;3.55;;;3.50;1.00;;;;;;4951454;28;20190;-74
2021/01/04 00:31:05;;;;;;;5.57;3.50;;;;;;;;;;4993460;28;20224;-74
2021/01/04 00:33:48;;;;;;;6.72;3.78;;;3.50;1.00;;;;;;4992416;28;20296;-75
2021/01/04 00:36:20;;;;;;;4.78;3.47;;;3.50;1.00;;;;;;4993286;28;20290;-78
2021/01/04 00:39:16;;;;;;;4.85;3.22;;;3.50;1.00;;;;;;4993078;28;20186;-78
2021/01/04 00:42:04;;;;;;;4.57;3.22;;;3.50;1.00;;;;;;4993144;28;20617;-78
2021/01/04 00:44:52;;;;;;;5.10;3.45;;;3.50;1.00;;;;;;4993109;28;20272;-78
2021/01/04 00:47:26;;;;;;;5.18;3.63;;;3.50;1.00;;;;;;4993099;28;20170;-78
2021/01/04 00:50:34;;;;;;;8.45;4.45;;;3.50;1.00;;;;;;4993140;28;20676;-78
2021/01/04 00:53:21;;;;;;;6.80;3.33;;;3.60;1.00;;;;;;4991685;28;20213;-78
2021/01/04 00:56:16;;;;;;;5.22;3.20;;;3.50;1.00;;;;;;4992352;28;20169;-79
2021/01/04 00:59:03;;;;;;;5.20;3.33;;;3.50;1.00;;;;;;4992396;28;20177;-75
2021/01/04 01:01:53;;;;;;;13.57;3.85;;;3.50;1.00;;;;;;4974807;28;20182;-75
2021/01/04 01:04:58;;;;;;;7.88;3.75;;;3.40;1.00;;;;;;4982259;28;20217;-75
2021/01/04 01:07:58;;;;;;;5.28;3.72;;;3.40;1.00;;;;;;4976180;28;20181;-78
2021/01/04 01:10:32;;;;;;;6.63;3.35;;;3.40;1.00;;;;;;4992370;28;20616;-79
2021/01/04 01:13:48;;;;;;;4.53;3.22;;;3.40;1.00;;;;;;4992185;28;20906;-79
2021/01/04 01:16:38;;;;;;;5.88;3.70;;;3.40;1.00;;;;;;4915647;29;20603;-78
2021/01/04 01:19:31;;;;;;;5.95;3.25;;;;;;;;;;4912298;29;20292;-78
2021/01/04 01:21:57;;;;;;;6.80;3.85;;;3.30;1.00;;;;;;4913166;29;20200;-78
2021/01/04 01:24:30;;;;;;;6.90;3.72;;;3.30;1.00;;;;;;4912587;29;20221;-79
2021/01/04 01:27:07;;;;;;;4.75;3.40;;;3.40;1.00;;;;;;4905909;29;20714;-78
2021/01/04 01:30:00;;;;;;;5.00;3.53;;;3.40;1.00;;;;;;4924151;28;20217;-78
2021/01/04 01:32:58;;;;;;;7.60;4.05;;;3.30;1.00;;;;;;4972919;28;20213;-78
2021/01/04 01:35:27;;;;;;;4.30;3.50;;;3.30;1.00;;;;;;4957081;28;20599;-74
2021/01/04 01:38:14;;;;;;;8.05;4.63;;;3.30;1.00;;;;;;4972738;28;20175;-75
2021/01/04 01:41:36;;;;;;;6.15;3.30;;;3.30;1.00;;;;;;4973052;28;20191;-78
2021/01/04 01:44:32;;;;;;;4.65;3.05;;;3.20;1.00;;;;;;4934346;29;20172;-78
2021/01/04 01:47:10;;;;;;;3.20;2.70;;;3.10;1.00;;;;;;4934476;29;20179;-78
2021/01/04 01:49:59;;;;;;;8.82;3.60;;;3.10;1.00;;;;;;4934674;29;20186;-78
2021/01/04 01:53:03;;;;;;;3.40;2.90;;;3.10;1.00;;;;;;4947665;28;20232;-74
2021/01/04 01:55:34;;;;;;;5.57;3.70;;;3.00;1.00;;;;;;4992278;28;20193;-74
2021/01/04 01:58:22;;;;;;;6.57;3.95;;;3.00;1.00;;;;;;4996340;28;20169;-75
2021/01/04 02:00:57;;;;;;;6.45;3.92;;;3.00;1.00;;;;;;4992070;28;20194;-75
2021/01/04 02:03:28;;;;;;;5.60;3.60;;;2.90;1.00;;;;;;4992310;28;20171;-74
2021/01/04 02:06:13;;;;;;;9.15;3.75;;;2.90;1.00;;;;;;4992692;28;20173;-75
2021/01/04 02:08:50;;;;;;;5.85;3.75;;;2.80;1.00;;;;;;4992099;28;20651;-75
2021/01/04 02:11:50;;;;;;;6.07;3.58;;;2.80;1.00;;;;;;4992064;28;20199;-75
2021/01/04 02:14:29;;;;;;;5.20;3.17;;;2.80;1.00;;;;;;4977436;28;20676;-75
2021/01/04 02:17:24;;;;;;;5.32;3.53;;;2.80;1.00;;;;;;4992208;28;20162;-75
2021/01/04 02:20:12;;;;;;;10.02;4.30;;;2.80;1.00;;;;;;4990046;28;20194;-75
2021/01/04 02:22:44;;;;;;;6.47;3.70;;;2.80;1.00;;;;;;4975031;28;20186;-75
2021/01/04 02:25:11;;;;;;;5.78;3.72;;;2.80;1.00;;;;;;4957225;28;20183;-75
2021/01/04 02:27:46;;;;;;;5.72;2.92;;;2.80;1.00;;;;;;4983187;28;20689;-75
2021/01/04 02:30:13;;;;;;;4.97;3.38;;;2.80;1.00;;;;;;4991941;28;20165;-75
2021/01/04 02:32:58;;;;;;;4.93;3.42;;;2.80;1.00;;;;;;4992728;28;20823;-75
2021/01/04 02:35:28;;;;;;;4.88;3.50;;;2.80;1.00;;;;;;4996087;28;20176;-78
2021/01/04 02:38:18;;;;;;;3.70;3.35;;;2.80;1.00;;;;;;4995119;28;20197;-79
2021/01/04 02:40:46;;;;;;;5.45;2.78;;;2.90;1.00;;;;;;4994857;28;20613;-78
2021/01/04 02:43:22;;;;;;;8.55;4.10;;;2.90;1.00;;;;;;4994930;28;20185;-75
2021/01/04 02:46:07;;;;;;;6.28;3.45;;;2.90;1.00;;;;;;4995353;28;20170;-75
2021/01/04 02:48:45;;;;;;;4.75;3.25;;;2.90;1.00;;;;;;4995213;28;20178;-75
2021/01/04 02:51:37;;;;;;;6.07;4.15;;;2.90;1.00;;;;;;5023516;28;20180;-78
2021/01/04 02:54:46;;;;;;;5.60;3.60;;;2.90;1.00;;;;;;5052092;28;20242;-78
2021/01/04 02:57:42;;;;;;;6.65;3.97;;;2.90;1.00;;;;;;5050089;28;20164;-78
2021/01/04 03:00:14;;;;;;;7.63;4.10;;;3.00;1.00;;;;;;5026448;28;20212;-78
2021/01/04 03:02:54;;;;;;;6.47;3.53;;;3.00;1.00;;;;;;5015023;28;20200;-78
2021/01/04 03:05:24;;;;;;;5.07;3.63;;;3.00;1.00;;;;;;5034444;28;20185;-78
2021/01/04 03:11:16;;;;;;;6.40;3.63;;;3.00;1.00;;;;;;5014134;28;20227;-78
2021/01/04 03:13:52;;;;;;;4.47;3.10;;;3.00;1.00;;;;;;5014176;28;20248;-78
2021/01/04 03:16:35;;;;;;;6.30;3.20;;;3.00;1.00;;;;;;5027359;28;20179;-78
2021/01/04 03:19:13;;;;;;;8.68;4.97;;;3.00;1.00;;;;;;5015732;28;20188;-78
2021/01/04 03:21:40;;;;;;;4.03;3.17;;;2.90;1.00;;;;;;5034230;28;20184;-76
2021/01/04 03:24:11;;;;;;;8.45;4.18;;;3.00;1.00;;;;;;5024034;28;20197;-75
2021/01/04 03:26:48;;;;;;;9.77;4.70;;;2.90;1.00;;;;;;5014380;28;20169;-75
2021/01/04 03:29:40;;;;;;;6.10;3.85;;;2.90;1.00;;;;;;5031400;28;20566;-75
2021/01/04 03:32:06;;;;;;;5.93;3.55;;;2.90;1.00;;;;;;5033966;28;20176;-74
2021/01/04 03:34:34;;;;;;;6.77;3.63;;;2.90;1.00;;;;;;5034084;28;20239;-75
2021/01/04 03:37:04;;;;;;;6.07;3.58;;;2.90;1.00;;;;;;5042563;28;20663;-78
2021/01/04 03:40:10;;;;;;;7.50;3.80;;;2.90;1.00;;;;;;5055736;28;20230;-78
2021/01/04 03:45:58;;;;;;;7.25;3.58;;;3.00;1.00;;;;;;5055734;28;20223;-79
2021/01/04 03:48:40;;;;;;;5.88;3.78;;;2.90;1.00;;;;;;5035835;28;20169;-78
2021/01/04 03:51:34;;;;;;;6.10;4.15;;;3.00;1.00;;;;;;5035765;28;20179;-78
2021/01/04 03:54:04;;;;;;;6.72;3.60;;;3.00;1.00;;;;;;5035373;28;20211;-78
2021/01/04 03:56:46;;;;;;;7.55;3.85;;;3.00;1.00;;;;;;5035354;28;20169;-78
2021/01/04 03:59:28;;;;;;;4.15;3.33;;;3.00;1.00;;;;;;5040504;28;20180;-79
2021/01/04 04:01:58;;;;;;;6.25;4.10;;;3.00;1.00;;;;;;5055127;28;20202;-79
2021/01/04 04:07:46;;;;;;;9.10;4.20;;;3.00;1.00;;;;;;5041683;28;20727;-75
2021/01/04 04:10:15;;;;;;;9.00;4.60;;;3.00;1.00;;;;;;5046927;28;20176;-75
2021/01/04 04:12:47;;;;;;;8.25;4.30;;;3.00;1.00;;;;;;5037105;28;20172;-75
2021/01/04 04:15:15;;;;;;;6.32;3.30;;;3.00;1.00;;;;;;5047733;28;20208;-75
2021/01/04 04:17:47;;;;;;;9.43;4.60;;;3.00;1.00;;;;;;5034687;28;20654;-75
2021/01/04 04:20:18;;;;;;;9.90;4.05;;;3.10;1.00;;;;;;5043771;28;20187;-75
2021/01/04 04:22:52;;;;;;;10.45;4.70;;;3.00;1.00;;;;;;5051848;28;20176;-75
2021/01/04 04:25:20;;;;;;;6.65;4.43;;;3.00;1.00;;;;;;5048427;28;20229;-75
2021/01/04 04:27:47;;;;;;;11.95;4.68;;;3.10;1.00;;;;;;5034368;28;20173;-78
2021/01/04 04:30:21;;;;;;;9.13;4.07;;;3.00;1.00;;;;;;5034898;28;20191;-78
2021/01/04 04:32:51;;;;;;;7.55;4.22;;;3.10;1.00;;;;;;5033230;28;20209;-78
2021/01/04 04:35:16;;;;;;;9.43;4.15;;;3.10;1.00;;;;;;5047400;28;20220;-78
2021/01/04 04:37:43;;;;;;;9.53;4.20;;;3.10;1.00;;;;;;5049520;28;20657;-78
2021/01/04 04:40:24;;;;;;;4.97;3.75;;;3.10;1.00;;;;;;5033935;28;20611;-79
2021/01/04 04:43:10;;;;;;;8.10;3.67;;;3.10;1.00;;;;;;5037052;28;20658;-78
2021/01/04 04:45:37;;;;;;;8.60;4.57;;;3.10;1.00;;;;;;5033797;28;20640;-79
2021/01/04 04:48:21;;;;;;;7.13;4.45;;;3.20;1.00;;;;;;5033958;28;20161;-79
2021/01/04 04:51:20;;;;;;;10.00;5.00;;;3.10;1.00;;;;;;5032332;28;20171;-78
2021/01/04 04:54:13;;;;;;;7.88;4.70;;;3.10;1.00;;;;;;5034201;28;20673;-75
2021/01/04 04:57:01;;;;;;;5.70;3.92;;;3.20;1.00;;;;;;5033373;28;20240;-75
2021/01/04 04:59:35;;;;;;;10.93;4.93;;;3.10;1.00;;;;;;5051549;28;20210;-75
2021/01/04 05:02:38;;;;;;;10.48;5.15;;;3.10;1.00;;;;;;5053370;28;20183;-75
2021/01/04 05:05:17;;;;;;;11.48;5.05;;;3.10;1.00;;;;;;5034592;28;20172;-75
2021/01/04 05:08:19;;;;;;;11.35;5.45;;;3.10;1.00;;;;;;5033979;28;20192;-75
2021/01/04 05:10:51;;;;;;;5.60;3.50;;;3.20;1.00;;;;;;5040291;28;20176;-75
2021/01/04 05:13:23;;;;;;;8.70;4.68;;;3.20;1.00;;;;;;5050833;28;20278;-75
2021/01/04 05:16:02;;;;;;;8.07;4.30;;;3.20;1.00;;;;;;5042830;28;20776;-75
2021/01/04 05:18:55;;;;;;;11.65;5.60;;;3.20;1.00;;;;;;5033182;28;20551;-75
2021/01/04 05:21:55;;;;;;;9.95;4.47;;;3.20;1.00;;;;;;5037388;28;20192;-75
2021/01/04 05:24:58;;;;;;;7.68;4.88;;;3.20;1.00;;;;;;5045995;28;20183;-79
2021/01/04 05:27:56;;;;;;;6.93;3.55;;;3.20;1.00;;;;;;5051627;28;20498;-80
2021/01/04 05:31:10;;;;;;;7.55;4.55;;;3.20;1.00;;;;;;5047294;28;20643;-78
2021/01/04 05:33:56;;;;;;;11.35;4.55;;;3.20;1.00;;;;;;5052356;28;20253;-80
2021/01/04 05:36:37;;;;;;;11.57;5.65;;;3.20;1.00;;;;;;5033584;28;20195;-79
2021/01/04 05:39:40;;;;;;;8.55;5.05;;;3.20;1.00;;;;;;5033953;28;20183;-78
2021/01/04 05:42:31;;;;;;;6.28;3.97;;;3.20;1.00;;;;;;5034235;28;20172;-75
2021/01/04 05:45:06;;;;;;;8.85;4.90;;;3.20;1.00;;;;;;5033909;28;20647;-75
2021/01/04 05:47:45;;;;;;;11.98;4.43;;;3.20;1.00;;;;;;5033882;28;20175;-75
2021/01/04 05:50:44;;;;;;;7.10;4.65;;;3.20;1.00;;;;;;5034538;28;20525;-75
2021/01/04 05:53:11;;;;;;;10.27;5.00;;;3.20;1.00;;;;;;5046735;28;20530;-75
2021/01/04 05:55:37;;;;;;;11.48;5.15;;;3.10;1.00;;;;;;5053538;28;20184;-75
2021/01/04 05:58:28;;;;;;;8.37;4.70;;;3.10;1.00;;;;;;5052220;28;20164;-75
2021/01/04 06:00:54;;;;;;;5.78;3.67;;;3.10;1.00;;;;;;5052118;28;20195;-74
2021/01/04 06:03:29;;;;;;;9.75;5.40;;;3.20;1.00;;;;;;5037102;28;20620;-74
2021/01/04 06:06:23;;;;;;;11.07;5.05;;;3.10;1.00;;;;;;5049640;28;20182;-75
2021/01/04 06:08:59;;;;;;;8.70;4.90;;;3.10;1.00;;;;;;5057629;28;20205;-78
2021/01/04 06:11:59;;;;;;;8.60;4.57;;;3.10;1.00;;;;;;5057472;28;20152;-79
2021/01/04 06:14:37;;;;;;;9.07;4.90;;;3.10;1.00;;;;;;5043250;28;20295;-78
2021/01/04 06:17:22;;;;;;;10.48;5.05;;;3.20;1.00;;;;;;5057221;28;20705;-79
2021/01/04 06:20:28;;;;;;;10.48;6.15;;;3.20;1.00;;;;;;5051606;28;20227;-78
2021/01/04 06:22:54;;;;;;;10.80;4.88;;;;;;;;;;5040650;28;20179;-75
2021/01/04 06:25:32;;;;;;;11.05;4.80;;;3.20;1.00;;;;;;5037559;28;20573;-74
2021/01/04 06:28:03;;;;;;;7.07;4.18;;;3.20;1.00;;;;;;5037364;28;20581;-75
2021/01/04 06:30:34;;;;;;;12.35;5.20;;;3.20;1.00;;;;;;5036140;28;20274;-74
2021/01/04 06:33:09;;;;;;;9.48;5.50;;;3.20;1.00;;;;;;5043823;28;20183;-75
2021/01/04 06:35:35;;;;;;;12.85;5.38;;;3.30;1.00;;;;;;5037312;28;20547;-74
2021/01/04 06:38:46;;;;;;;8.02;4.97;;;3.30;1.00;;;;;;5047775;28;20619;-78
2021/01/04 06:41:30;;;;;;;7.32;4.20;;;3.30;1.00;;;;;;5056813;28;20156;-79
2021/01/04 06:44:22;;;;;;;10.75;5.38;;;3.20;1.00;;;;;;5049420;28;20208;-80
2021/01/04 06:47:16;;;;;;;9.55;4.47;;;3.30;1.00;;;;;;5056581;28;20565;-79
2021/01/04 06:50:18;;;;;;;12.70;4.40;;;3.20;1.00;;;;;;5056503;28;20168;-79
2021/01/04 06:53:11;;;;;;;13.25;5.45;;;3.30;1.00;;;;;;5056428;28;20650;-79
2021/01/04 06:55:59;;;;;;;8.65;4.97;;;3.10;1.00;;;;;;5055380;28;20179;-75
2021/01/04 06:58:42;;;;;;;7.65;4.55;;;3.20;1.00;;;;;;5056463;28;20152;-74
2021/01/04 07:01:43;;;;;;;7.75;4.57;;;3.20;1.00;;;;;;5056350;28;20191;-79
2021/01/04 07:04:36;;;;;;;12.38;4.53;;;3.20;1.00;;;;;;5043174;28;20171;-78
2021/01/04 07:10:52;;;;;;;8.73;4.00;;;3.30;1.00;;;;;;5036739;28;20594;-75
2021/01/04 07:13:35;;;;;;;10.38;4.40;;;3.30;1.00;;;;;;5035489;28;20196;-74
2021/01/04 07:16:16;;;;;;;11.18;4.53;;;3.30;1.00;;;;;;5048933;28;20556;-75
2021/01/04 07:18:52;;;;;;;8.45;4.65;;;3.20;1.00;;;;;;5055735;28;20166;-74
2021/01/04 07:21:46;;;;;;;12.02;4.65;;;3.20;1.00;;;;;;5061298;28;20184;-75
2021/01/04 07:24:34;;;;;;;8.27;5.13;;;3.20;1.00;;;;;;5041758;28;20191;-79
2021/01/04 07:27:33;;;;;;;7.40;3.60;;;3.30;1.00;;;;;;5050307;28;20577;-80
2021/01/04 07:30:37;;;;;;;10.20;4.88;;;3.30;1.00;;;;;;5055056;28;20253;-80
2021/01/04 07:33:52;;;;;;;9.25;4.72;;;3.30;1.00;;;;;;5033616;28;20212;-79
2021/01/04 07:36:43;;;;;;;11.52;5.35;;;3.40;1.00;;;;;;5016016;28;20193;-79
2021/01/04 07:39:52;;;;;;;6.75;4.05;;;3.40;1.00;;;;;;5023600;28;20179;-75
2021/01/04 07:42:54;;;;;;;10.45;5.40;;;3.40;1.00;;;;;;4971833;28;20197;-79
2021/01/04 07:45:47;;;;;;;8.77;4.90;;;3.40;1.00;;;;;;4975093;28;20170;-79
2021/01/04 07:48:41;;;;;;;13.98;4.95;;;3.40;1.00;;;;;;4956988;28;20167;-79
2021/01/04 07:51:40;;;;;;;9.90;4.70;;;3.40;1.00;;;;;;4957468;28;20201;-79
2021/01/04 07:54:08;;;;;;;9.75;5.10;;;3.40;1.00;;;;;;4955680;29;20609;-74
2021/01/04 07:57:11;;;;;;;12.48;5.60;;;3.30;1.00;;;;;;4953757;29;20179;-74
2021/01/04 07:59:59;;;;;;;11.80;5.10;;;3.40;1.00;;;;;;4955073;29;20754;-74
2021/01/04 08:02:43;;;;;;;9.95;5.07;;;3.40;1.00;;;;;;4954001;29;20734;-75
2021/01/04 08:05:58;;;;;;;14.10;4.93;;;3.30;1.00;;;;;;4955054;29;20641;-75
2021/01/04 08:08:53;;;;;;;8.55;4.82;;;3.40;1.00;;;;;;4883639;29;20230;-75
2021/01/04 08:11:46;;;;;;;10.50;5.05;;;3.40;1.00;;;;;;4937238;29;20195;-79
2021/01/04 08:14:34;;;;;;;8.30;4.63;;;3.40;1.00;;;;;;4949469;29;20191;-79
2021/01/04 08:17:43;;;;;;;11.85;5.00;;;3.40;1.00;;;;;;4935713;29;20271;-79
2021/01/04 08:20:09;;;;;;;11.48;5.80;;;3.40;1.00;;;;;;4922089;29;20226;-79
2021/01/04 08:23:02;;;;;;;9.90;4.65;;;3.50;1.00;;;;;;4926085;29;20612;-79
2021/01/04 08:25:34;;;;;;;9.30;4.65;;;3.50;1.00;;;;;;4931948;29;20195;-75
2021/01/04 08:28:18;;;;;;;8.88;4.72;;;3.50;1.00;;;;;;4935457;29;20188;-75
2021/01/04 08:30:52;;;;;;;9.65;5.18;;;3.50;1.00;;;;;;4933477;29;20253;-75
2021/01/04 08:33:38;;;;;;;10.45;4.80;;;3.50;1.00;;;;;;4915092;29;20282;-75
2021/01/04 08:36:18;;;;;;;9.00;5.03;;;3.50;1.00;;;;;;4915220;29;20221;-75
2021/01/04 08:38:44;;;;;;;8.82;4.65;;;;;;;;;;4931759;29;20245;-78
2021/01/04 08:41:25;;;;;;;10.37;4.90;;;3.50;1.00;;;;;;4933829;29;20610;-75
2021/01/04 08:43:52;;;;;;;10.63;4.68;;;3.50;1.00;;;;;;4937538;28;20896;-75
2021/01/04 08:46:24;;;;;;;11.27;5.50;;;3.50;1.00;;;;;;4972760;28;20154;-75
2021/01/04 08:48:51;;;;;;;11.02;5.13;;;3.40;1.00;;;;;;4958896;28;20187;-75
2021/01/04 08:51:29;;;;;;;10.77;4.82;;;3.50;1.00;;;;;;4953348;29;20334;-75
2021/01/04 08:54:16;;;;;;;8.68;4.22;;;3.50;1.00;;;;;;4968976;28;20194;-77
2021/01/04 08:56:45;;;;;;;10.55;5.70;;;3.40;1.00;;;;;;4998934;28;20263;-75
2021/01/04 08:59:20;;;;;;;9.73;4.90;;;3.50;1.00;;;;;;5033553;28;20164;-75
2021/01/04 09:01:51;;;;;;;12.32;4.80;;;3.60;1.00;;;;;;5048195;28;20198;-75
2021/01/04 09:04:37;;;;;;;8.98;4.45;;;3.60;1.00;;;;;;5052984;28;20175;-75
2021/01/04 09:07:10;;;;;;;10.90;4.90;;;3.60;1.00;;;;;;5038029;28;20243;-75
2021/01/04 09:10:01;;;;;;;9.25;4.90;;;3.60;1.00;;;;;;5045519;28;20167;-75
2021/01/04 09:12:41;;;;;;;11.52;5.07;;;3.60;1.00;;;;;;5030445;28;20663;-75
2021/01/04 09:15:28;;;;;;;9.25;5.28;;;3.50;1.00;;;;;;5025867;28;20212;-75
2021/01/04 09:18:00;;;;;;;10.20;5.65;;;3.60;1.00;;;;;;5030651;28;20172;-75
2021/01/04 09:20:48;;;;;;;8.70;4.72;;;3.60;1.00;;;;;;5029323;28;20187;-75
2021/01/04 09:23:29;;;;;;;10.45;4.90;;;3.70;1.00;;;;;;5020728;28;20203;-75
2021/01/04 09:25:58;;;;;;;8.65;5.07;;;3.70;1.00;;;;;;5019567;28;20562;-75
2021/01/04 09:28:24;;;;;;;7.90;4.90;;;3.70;1.00;;;;;;5022482;28;20550;-79
2021/01/04 09:30:57;;;;;;;13.20;4.63;;;3.80;1.00;;;;;;5023307;28;20184;-79
2021/01/04 09:33:24;;;;;;;7.85;4.57;;;;;;;;;;5026955;28;20200;-79
2021/01/04 09:35:50;;;;;;;10.38;5.15;;;3.90;1.00;;;;;;5026917;28;20192;-79
2021/01/04 09:38:22;;;;;;;9.50;4.90;;;3.90;1.00;;;;;;4994459;28;20192;-79
2021/01/04 09:40:51;;;;;;;10.65;4.90;;;4.00;1.00;;;;;;5018529;28;20247;-75
2021/01/04 09:43:24;;;;;;;9.25;4.80;;;3.90;1.00;;;;;;5030226;28;20279;-75
2021/01/04 09:46:07;;;;;;;7.97;4.57;;;3.90;1.00;;;;;;5030466;28;20175;-75
2021/01/04 09:48:40;;;;;;;9.80;4.90;;;4.10;1.00;;;;;;5030025;28;20191;-79
2021/01/04 09:51:09;;;;;;;12.88;5.65;;;4.10;1.00;;;;;;5032768;28;20164;-79
2021/01/04 09:53:37;;;;;;;9.30;4.82;;;4.00;1.00;;;;;;5034236;28;20564;-80
2021/01/04 09:56:14;;;;;;;8.40;4.30;;;3.90;1.00;;;;;;5043735;28;20206;-83
2021/01/04 09:58:41;;;;;;;7.95;4.63;;;4.00;1.00;;;;;;5039530;28;20255;-79
2021/01/04 10:01:16;;;;;;;10.48;5.43;;;4.10;1.00;;;;;;5047291;28;20200;-78
2021/01/04 10:03:54;;;;;;;12.63;5.35;;;4.20;1.00;;;;;;5041975;28;20175;-79
2021/01/04 10:06:22;;;;;;;9.52;5.30;;;4.20;1.00;;;;;;5044104;28;20273;-79
2021/01/04 10:08:48;;;;;;;7.35;4.82;;;4.30;1.00;;;;;;5048798;28;20221;-79
2021/01/04 10:11:20;;;;;;;9.65;5.13;;;4.30;1.00;;;;;;5053054;28;20155;-75
2021/01/04 10:13:46;;;;;;;9.23;5.03;;;4.40;1.00;;;;;;5051123;28;20195;-75
2021/01/04 10:16:16;;;;;;;11.27;5.68;;;4.50;1.00;;;;;;5052387;28;20518;-75
2021/01/04 10:18:57;;;;;;;8.25;4.93;;;4.50;1.00;;;;;;5038928;28;20180;-75
2021/01/04 10:21:55;;;;;;;9.25;5.05;;;4.50;1.00;;;;;;5050715;28;20638;-76
2021/01/04 10:24:59;;;;;;;10.57;5.40;;;4.60;1.00;;;;;;5036816;28;20203;-78
2021/01/04 10:27:28;;;;;;;11.90;4.65;;;4.60;1.00;;;;;;5031476;28;20200;-76
2021/01/04 10:29:56;;;;;;;15.00;5.68;;;4.40;1.00;;;;;;5040418;28;20593;-74
2021/01/04 10:32:27;;;;;;;9.90;4.30;;;4.50;1.00;;;;;;5052285;28;20198;-75
2021/01/04 10:34:54;;;;;;;13.63;5.45;;;4.50;1.00;;;;;;5052170;28;20195;-75
2021/01/04 10:37:33;;;;;;;9.93;5.55;;;4.50;1.00;;;;;;5035947;28;20230;-75
2021/01/04 10:40:02;;;;;;;10.85;4.70;;;8.30;1.00;;;;;;5031143;28;20176;-76
2021/01/04 10:42:29;;;;;;;9.07;4.70;;;4.70;1.00;;;;;;5033209;28;20188;-75
2021/01/04 10:45:06;;;;;;;8.50;4.57;;;4.70;1.00;;;;;;5032579;28;20251;-75
2021/01/04 10:47:48;;;;;;;7.82;4.40;;;4.70;1.00;;;;;;5032067;28;20168;-75
2021/01/04 10:50:35;;;;;;;7.85;4.85;;;4.60;1.00;;;;;;5032495;28;20180;-75
2021/01/04 10:53:05;;;;;;;10.73;5.35;;;4.60;1.00;;;;;;5039126;28;20174;-75
2021/01/04 10:55:35;;;;;;;10.52;4.68;;;4.70;1.00;;;;;;5046788;28;20293;-78
2021/01/04 10:58:27;;;;;;;7.63;4.30;;;4.70;1.00;;;;;;5050496;28;20178;-78
2021/01/04 11:01:04;;;;;;;14.00;5.15;;;4.70;1.00;;;;;;5055460;28;20286;-75
2021/01/04 11:03:30;;;;;;;10.00;4.25;;;4.80;1.00;;;;;;5055499;28;20167;-75
2021/01/04 11:05:56;;;;;;;6.37;3.97;;;;;;;;;;5055720;28;20674;-78
2021/01/04 11:08:24;;;;;;;17.33;4.43;;;4.70;1.00;;;;;;5055554;28;20156;-78
2021/01/04 11:10:53;;;;;;;8.57;4.65;;;4.90;1.00;;;;;;5055513;28;20403;-75
2021/01/04 11:13:31;;;;;;;10.75;5.35;;;5.00;1.00;;;;;;5053977;28;20199;-78
2021/01/04 11:16:14;;;;;;;8.48;4.45;;;5.00;1.00;;;;;;5053990;28;20265;-78
2021/01/04 11:18:55;;;;;;;11.98;5.40;;;5.10;1.00;;;;;;5055259;28;20156;-78
2021/01/04 11:21:45;;;;;;;10.23;4.28;;;5.10;1.00;;;;;;5053714;28;20171;-75
2021/01/04 11:24:12;;;;;;;11.07;4.20;;;5.10;1.00;;;;;;5055062;28;20160;-78
2021/01/04 11:26:43;;;;;;;8.15;4.13;;;5.10;1.00;;;;;;5047142;28;20685;-78
2021/01/04 11:29:09;;;;;;;6.70;4.00;;;5.00;1.00;;;;;;5034021;28;20664;-78
2021/01/04 11:31:36;;;;;;;8.60;4.72;;;5.00;1.00;;;;;;5035132;28;20161;-78
2021/01/04 11:34:03;;;;;;;8.93;5.05;;;4.90;1.00;;;;;;5035778;28;20196;-78
2021/01/04 11:36:29;;;;;;;7.47;4.03;;;;;;;;;;5054716;28;20147;-75
2021/01/04 11:38:55;;;;;;;8.50;4.37;;;;;;;;;;5053465;28;20314;-75
2021/01/04 11:41:21;;;;;;;7.23;4.00;;;4.90;1.00;;;;;;5040564;28;20415;-75
2021/01/04 11:43:48;;;;;;;8.23;4.60;;;5.00;1.00;;;;;;5051049;28;20421;-78
2021/01/04 11:46:18;;;;;;;7.40;4.20;;;5.10;1.00;;;;;;5036238;28;20910;-78
2021/01/04 11:48:45;;;;;;;7.28;4.55;;;5.20;1.00;;;;;;5039217;28;20528;-78
2021/01/04 11:51:19;;;;;;;8.63;4.45;;;5.20;1.00;;;;;;5052777;28;20179;-78
2021/01/04 11:53:46;;;;;;;5.85;3.92;;;5.10;1.00;;;;;;5039057;28;20215;-79
2021/01/04 11:56:12;;;;;;;8.57;5.07;;;4.90;1.00;;;;;;5037811;28;20673;-75
2021/01/04 11:58:39;;;;;;;9.90;4.80;;;;;;;;;;5034611;28;20251;-75
2021/01/04 12:01:05;;;;;;;6.88;4.00;;;;;;;;;;5035038;28;20283;-75
2021/01/04 12:03:31;;;;;;;7.85;4.25;;;;;;;;;;5049363;28;20172;-75
2021/01/04 12:05:57;;;;;;;11.03;5.23;;;;;;;;;;5054515;28;20503;-75
2021/01/04 12:08:23;;;;;;;8.80;4.50;;;;;;;;;;5054403;28;20431;-75
2021/01/04 12:10:49;;;;;;;6.53;4.10;;;;;;;;;;5050362;28;20902;-75
2021/01/04 12:13:15;;;;;;;6.03;4.20;;;;;;;;;;5034386;28;20408;-75
2021/01/04 12:15:41;;;;;;;8.70;4.53;;;4.80;1.00;;;;;;5034261;28;20435;-75
2021/01/04 12:18:07;;;;;;;9.13;4.90;;;;;;;;;;5034362;28;20403;-75
2021/01/04 12:20:33;;;;;;;7.57;4.65;;;4.90;1.00;;;;;;5034235;28;20236;-75
2021/01/04 12:22:58;;;;;;;6.30;4.03;;;4.90;1.00;;;;;;5034158;28;20176;-75
2021/01/04 12:25:24;;;;;;;8.73;3.77;;;;;;;;;;5034549;28;20412;-75
2021/01/04 12:27:51;;;;;;;7.70;4.22;;;;;;;;;;5049935;28;20263;-75
2021/01/04 12:30:17;;;;;;;8.63;3.97;;;4.80;1.00;;;;;;5034145;28;20165;-75
2021/01/04 12:32:43;;;;;;;8.73;3.92;;;4.80;1.00;;;;;;5032783;28;20183;-75
2021/01/04 12:35:10;;;;;;;5.53;3.47;;;4.90;1.00;;;;;;5034158;28;20188;-75
2021/01/04 12:37:37;;;;;;;5.75;3.70;;;;;;;;;;5049066;28;20589;-78
2021/01/04 12:40:16;;;;;;;7.32;4.25;;;4.90;1.00;;;;;;5033991;28;20460;-78
2021/01/04 12:42:42;;;;;;;11.23;4.50;;;4.80;1.00;;;;;;5040700;28;20171;-78
2021/01/04 12:45:09;;;;;;;8.63;4.63;;;4.80;1.00;;;;;;5053719;28;20156;-78
2021/01/04 12:47:34;;;;;;;9.55;3.85;;;4.70;1.00;;;;;;5053722;28;20183;-78
2021/01/04 12:50:00;;;;;;;9.60;4.37;;;;;;;;;;5053742;28;20190;-78
2021/01/04 12:52:26;;;;;;;9.20;4.03;;;4.70;1.00;;;;;;5051470;28;20176;-78
2021/01/04 12:54:52;;;;;;;6.77;4.13;;;4.60;1.00;;;;;;5053467;28;20196;-78
2021/01/04 12:57:18;;;;;;;6.03;3.60;;;4.50;1.00;;;;;;5053849;28;20152;-75
2021/01/04 12:59:45;;;;;;;7.13;3.65;;;;;;;;;;5033256;28;20180;-75
2021/01/04 13:02:13;;;;;;;12.15;4.70;;;4.50;1.00;;;;;;5033753;28;20600;-74
2021/01/04 13:04:42;;;;;;;8.27;4.40;;;4.50;1.00;;;;;;5033349;28;20156;-75
2021/01/04 13:07:09;;;;;;;6.53;4.32;;;4.50;1.00;;;;;;5048930;28;20688;-75
2021/01/04 13:09:35;;;;;;;7.65;4.20;;;;;;;;;;5046036;28;20551;-75
2021/01/04 13:12:01;;;;;;;7.03;3.73;;;4.30;1.00;;;;;;5033710;28;20167;-75
2021/01/04 13:14:27;;;;;;;6.15;3.72;;;;;;;;;;5033436;28;20482;-75
2021/01/04 13:16:53;;;;;;;7.30;4.07;;;;;;;;;;5032712;28;20570;-75
2021/01/04 13:19:20;;;;;;;7.97;3.92;;;;;;;;;;5033238;28;20172;-75
2021/01/04 13:21:46;;;;;;;7.35;3.90;;;;;;;;;;5033202;28;20171;-75
2021/01/04 13:24:14;;;;;;;8.15;4.88;;;4.50;1.00;;;;;;5035444;28;20173;-75
2021/01/04 13:26:43;;;;;;;7.25;4.07;;;;;;;;;;5053378;28;20160;-76
2021/01/04 13:29:10;;;;;;;8.88;4.57;;;4.40;1.00;;;;;;5051550;28;20257;-75
2021/01/04 13:31:36;;;;;;;6.90;4.50;;;4.20;1.00;;;;;;5039778;28;20188;-75
2021/01/04 13:34:02;;;;;;;7.70;4.50;;;4.30;1.00;;;;;;5041693;28;20553;-75
2021/01/04 13:36:28;;;;;;;7.63;4.27;;;;;;;;;;5032741;28;20755;-75
2021/01/04 13:38:54;;;;;;;6.47;3.50;;;;;;;;;;5032885;28;20159;-75
2021/01/04 13:41:23;;;;;;;10.90;4.75;;;4.40;1.00;;;;;;5032600;28;20434;-75
2021/01/04 13:43:49;;;;;;;10.38;4.70;;;;;;;;;;5050313;28;20686;-75
2021/01/04 13:46:29;;;;;;;8.10;4.47;;;4.40;1.00;;;;;;5037428;28;20198;-75
2021/01/04 13:48:55;;;;;;;8.20;4.18;;;;;;;;;;5050825;28;20401;-74
2021/01/04 13:51:21;;;;;;;8.00;4.30;;;4.40;1.00;;;;;;5051735;28;20168;-74
2021/01/04 13:53:47;;;;;;;9.70;4.50;;;;;;;;;;5045831;28;20212;-75
2021/01/04 13:56:13;;;;;;;6.65;3.88;;;4.50;1.00;;;;;;5037552;28;20464;-77
2021/01/04 13:58:39;;;;;;;7.35;4.65;;;4.50;1.00;;;;;;5033343;28;20222;-77
2021/01/04 14:01:07;;;;;;;7.77;4.40;;;4.50;1.00;;;;;;5038535;28;20551;-78
2021/01/04 14:03:33;;;;;;;11.88;4.60;;;;;;;;;;5051201;28;20172;-78
2021/01/04 14:05:59;;;;;;;8.27;4.13;;;;;;;;;;5052286;28;20168;-76
2021/01/04 14:08:25;;;;;;;8.27;4.40;;;;;;;;;;5052317;28;20163;-75
2021/01/04 14:10:52;;;;;;;7.72;4.20;;;4.40;1.00;;;;;;5052618;28;20164;-78
2021/01/04 14:13:19;;;;;;;8.23;4.32;;;4.30;1.00;;;;;;5052708;28;20254;-75
2021/01/04 14:15:45;;;;;;;7.28;4.63;;;;;;;;;;5039911;28;20172;-75
2021/01/04 14:18:12;;;;;;;9.05;4.10;;;4.40;1.00;;;;;;5032451;28;20612;-75
2021/01/04 14:20:37;;;;;;;5.57;3.60;;;4.30;1.00;;;;;;5032471;28;20223;-75
2021/01/04 14:23:03;;;;;;;7.33;4.00;;;4.30;1.00;;;;;;5032468;28;20161;-75
2021/01/04 14:25:29;;;;;;;7.90;4.13;;;;;;;;;;5032734;28;20564;-75
2021/01/04 14:27:55;;;;;;;8.60;4.30;;;4.30;1.00;;;;;;5033789;28;20188;-75